Time;durP1;ratioP1;P1;durP2;ratioP2;P2;SDS_P1;SDS_P2;PMS_P1;PMS_P2;Temp;Humidity;BMP_temperature;BMP_pressure;BME280_temperature;BME280_humidity;BME280_pressure;Samples;Min_cycle;Max_cycle;Signal;HPM_P1;HPM_P2
2023/09/09 00:02:20;;;;;;;46.10;43.67;;;;;;;;;;5039694;28;20043;-66
2023/09/09 00:04:45;;;;;;;44.45;42.08;;;;;;;;;;5036581;28;20029;-65
2023/09/09 00:07:11;;;;;;;47.45;44.95;;;;;;;;;;5034297;28;20033;-65
2023/09/09 00:09:38;;;;;;;44.28;41.92;;;;;;;;;;5035221;28;20032;-65
2023/09/09 00:12:04;;;;;;;40.70;38.55;;;;;;;;;;5035915;28;20028;-65
2023/09/09 00:14:30;;;;;;;39.58;37.47;;;;;;;;;;5034992;28;20068;-62
2023/09/09 00:16:56;;;;;;;44.38;42.08;;;;;;;;;;5036592;28;20410;-62
2023/09/09 00:19:21;;;;;;;42.90;40.53;;;;;;;;;;5035465;28;20033;-62
2023/09/09 00:21:47;;;;;;;46.10;43.50;;;;;;;;;;5021581;28;20075;-61
2023/09/09 00:24:13;;;;;;;45.10;42.67;;;;;;;;;;5034838;28;20043;-61
2023/09/09 00:26:38;;;;;;;48.08;45.60;;;;;;;;;;5034503;28;20063;-61
2023/09/09 00:29:03;;;;;;;47.70;45.15;;;;;;;;;;5020815;28;20033;-66
2023/09/09 00:31:29;;;;;;;49.40;46.85;;;;;;;;;;5032856;28;20049;-66
2023/09/09 00:33:54;;;;;;;51.17;48.53;;;;;;;;;;5033624;28;20034;-66
2023/09/09 00:36:20;;;;;;;57.03;54.05;;;;;;;;;;5035255;28;20121;-66
2023/09/09 00:38:46;;;;;;;60.25;57.17;;;;;;;;;;5034339;28;20044;-67
2023/09/09 00:41:12;;;;;;;54.40;51.55;;;;;;;;;;5038059;28;20041;-64
2023/09/09 00:43:38;;;;;;;59.95;56.83;;;;;;;;;;5032851;28;20045;-66
2023/09/09 00:46:06;;;;;;;64.22;60.95;;;;;;;;;;5035203;28;20254;-66
2023/09/09 00:48:31;;;;;;;64.38;61.05;;;;;;;;;;5036364;28;20029;-66
2023/09/09 00:50:57;;;;;;;67.05;63.60;;;;;;;;;;5034641;28;20115;-61
2023/09/09 00:53:23;;;;;;;69.82;66.25;;;;;;;;;;5034401;28;20040;-62
2023/09/09 00:55:48;;;;;;;66.85;63.40;;;;;;;;;;5052816;28;20464;-61
2023/09/09 00:58:14;;;;;;;69.85;66.28;;;;;;;;;;5051347;28;20045;-61
2023/09/09 01:00:40;;;;;;;75.18;71.35;;;;;;;;;;5034263;28;20511;-66
2023/09/09 01:03:05;;;;;;;74.47;70.68;;;;;;;;;;5037398;28;20041;-61
2023/09/09 01:05:32;;;;;;;71.53;67.88;;;;;;;;;;5037384;28;20033;-61
2023/09/09 01:07:57;;;;;;;73.88;70.03;;;;;;;;;;5033030;28;20065;-61
2023/09/09 01:10:23;;;;;;;68.78;65.22;;;;;;;;;;5036472;28;20860;-66
2023/09/09 01:12:50;;;;;;;66.10;62.75;;;;;;;;;;5039812;28;20048;-65
2023/09/09 01:15:16;;;;;;;68.15;64.65;;;;;;;;;;5038459;28;20080;-65
2023/09/09 01:17:42;;;;;;;64.47;61.20;;;;;;;;;;5040819;28;20040;-66
2023/09/09 01:20:13;;;;;;;57.45;54.50;;;;;;;;;;5037936;28;20626;-66
2023/09/09 01:22:40;;;;;;;57.72;54.63;;;;;;;;;;5038550;28;20468;-61
2023/09/09 01:25:06;;;;;;;56.78;53.83;;;;;;;;;;5036756;28;20370;-61
2023/09/09 01:27:32;;;;;;;52.53;49.85;;;;;;;;;;5026934;28;20349;-61
2023/09/09 01:29:58;;;;;;;47.08;44.65;;;;;;;;;;5037225;28;20052;-61
2023/09/09 01:32:24;;;;;;;50.33;47.72;;;;;;;;;;5040559;28;20044;-62
2023/09/09 01:34:50;;;;;;;45.10;42.75;;;;;;;;;;5038430;28;20412;-66
2023/09/09 01:37:16;;;;;;;44.60;42.30;;;;;;;;;;5037541;28;20120;-66
2023/09/09 01:39:41;;;;;;;43.70;41.20;;;;;;;;;;5038932;28;20408;-65
2023/09/09 01:42:08;;;;;;;40.28;38.03;;;;;;;;;;5038491;28;20248;-66
2023/09/09 01:44:33;;;;;;;40.08;37.88;;;;;;;;;;5037659;28;20135;-66
2023/09/09 01:46:59;;;;;;;49.22;46.55;;;;;;;;;;5038795;28;20043;-66
2023/09/09 01:49:24;;;;;;;38.20;36.08;;;;;;;;;;5035642;28;20029;-66
2023/09/09 01:51:49;;;;;;;38.17;35.58;;;;;;;;;;5040861;28;20056;-65
2023/09/09 01:54:15;;;;;;;41.90;39.72;;;;;;;;;;5037062;28;20052;-61
2023/09/09 01:56:40;;;;;;;36.67;34.72;;;;;;;;;;5039551;28;20058;-65
2023/09/09 01:59:05;;;;;;;34.85;32.95;;;;;;;;;;5036857;28;20035;-61
2023/09/09 02:01:31;;;;;;;38.20;36.20;;;;;;;;;;5041265;28;20036;-61
2023/09/09 02:03:56;;;;;;;37.15;34.65;;;;;;;;;;5040435;28;20041;-61
2023/09/09 02:06:21;;;;;;;33.08;31.30;;;;;;;;;;5036210;28;20467;-61
2023/09/09 02:08:47;;;;;;;38.28;36.15;;;;;;;;;;5036390;28;20029;-61
2023/09/09 02:11:12;;;;;;;36.20;34.13;;;;;;;;;;5040369;28;20017;-61
2023/09/09 02:13:37;;;;;;;34.22;32.40;;;;;;;;;;5038488;28;20037;-61
2023/09/09 02:16:07;;;;;;;42.92;39.95;;;;;;;;;;5038567;28;20036;-61
2023/09/09 02:18:37;;;;;;;36.10;34.23;;;;;;;;;;5037776;28;20384;-61
2023/09/09 02:21:03;;;;;;;37.00;34.90;;;;;;;;;;5038345;28;20120;-66
2023/09/09 02:23:28;;;;;;;35.83;33.83;;;;;;;;;;5036719;28;20120;-66
2023/09/09 02:25:54;;;;;;;44.22;41.90;;;;;;;;;;5041096;28;20329;-66
2023/09/09 02:28:20;;;;;;;46.33;43.67;;;;;;;;;;5039234;28;20036;-66
2023/09/09 02:30:45;;;;;;;50.63;48.03;;;;;;;;;;5036426;28;20036;-61
2023/09/09 02:33:11;;;;;;;48.95;46.40;;;;;;;;;;5037458;28;20116;-61
2023/09/09 02:35:41;;;;;;;51.58;48.90;;;;;;;;;;5037515;28;20072;-61
2023/09/09 02:38:07;;;;;;;57.05;54.00;;;;;;;;;;5036963;28;20037;-66
2023/09/09 02:40:32;;;;;;;57.42;54.40;;;;;;;;;;5039752;28;20035;-65
2023/09/09 02:42:57;;;;;;;58.97;55.85;;;;;;;;;;5038568;28;20486;-65
2023/09/09 02:45:23;;;;;;;57.35;54.40;;;;;;;;;;5040661;28;20094;-65
2023/09/09 02:47:48;;;;;;;54.47;51.65;;;;;;;;;;5038423;28;20041;-65
2023/09/09 02:50:14;;;;;;;53.50;50.75;;;;;;;;;;5037941;28;20029;-66
2023/09/09 02:52:39;;;;;;;62.70;59.50;;;;;;;;;;5042180;28;20534;-61
2023/09/09 02:55:05;;;;;;;59.40;56.38;;;;;;;;;;5039391;28;20032;-61
2023/09/09 02:57:30;;;;;;;58.42;55.47;;;;;;;;;;5037705;28;20029;-61
2023/09/09 02:59:55;;;;;;;65.60;62.25;;;;;;;;;;5037330;28;20076;-65
2023/09/09 03:02:21;;;;;;;67.97;64.50;;;;;;;;;;5039059;28;20032;-65
2023/09/09 03:04:46;;;;;;;70.45;66.88;;;;;;;;;;5037082;28;20045;-66
2023/09/09 03:07:12;;;;;;;75.95;72.13;;;;;;;;;;5038504;28;20037;-66
2023/09/09 03:09:37;;;;;;;68.80;65.20;;;;;;;;;;5009589;28;20033;-67
2023/09/09 03:12:05;;;;;;;79.82;75.80;;;;;;;;;;5020540;28;20337;-66
2023/09/09 03:14:30;;;;;;;77.35;73.43;;;;;;;;;;5039758;28;20306;-62
2023/09/09 03:16:56;;;;;;;78.65;74.55;;;;;;;;;;5038212;28;20484;-62
2023/09/09 03:19:21;;;;;;;75.20;71.40;;;;;;;;;;5036563;28;20033;-62
2023/09/09 03:21:47;;;;;;;70.20;66.68;;;;;;;;;;5040042;28;20037;-67
2023/09/09 03:24:12;;;;;;;77.03;73.10;;;;;;;;;;5034028;28;20624;-67
2023/09/09 03:26:38;;;;;;;78.05;74.13;;;;;;;;;;5037306;28;20036;-67
2023/09/09 03:29:03;;;;;;;65.28;61.88;;;;;;;;;;5037678;28;20032;-62
2023/09/09 03:31:29;;;;;;;57.22;54.28;;;;;;;;;;5037662;28;20032;-66
2023/09/09 03:33:55;;;;;;;51.78;49.13;;;;;;;;;;5035988;28;20032;-66
2023/09/09 03:36:20;;;;;;;49.08;45.92;;;;;;;;;;5037786;28;20205;-67
2023/09/09 03:38:46;;;;;;;52.35;49.60;;;;;;;;;;5023893;28;20037;-67
2023/09/09 03:41:11;;;;;;;46.78;44.33;;;;;;;;;;5038583;28;20043;-67
2023/09/09 03:43:37;;;;;;;52.92;50.22;;;;;;;;;;5039121;28;20514;-62
2023/09/09 03:46:03;;;;;;;56.17;52.90;;;;;;;;;;5039437;28;20065;-66
2023/09/09 03:48:28;;;;;;;49.40;46.85;;;;;;;;;;5036422;28;20360;-67
2023/09/09 03:50:58;;;;;;;58.80;55.70;;;;;;;;;;5034185;28;20029;-67
2023/09/09 03:53:24;;;;;;;47.30;44.55;;;;;;;;;;5039645;28;20745;-66
2023/09/09 03:55:49;;;;;;;42.15;39.90;;;;;;;;;;5035558;28;20065;-62
2023/09/09 03:58:14;;;;;;;42.45;40.25;;;;;;;;;;5034683;28;20040;-62
2023/09/09 04:00:40;;;;;;;40.40;38.17;;;;;;;;;;5036352;28;20025;-62
2023/09/09 04:03:05;;;;;;;43.67;41.40;;;;;;;;;;5037595;28;20052;-66
2023/09/09 04:05:30;;;;;;;40.72;38.45;;;;;;;;;;5023187;28;20475;-67
2023/09/09 04:07:58;;;;;;;44.22;41.97;;;;;;;;;;5035025;28;20080;-67
2023/09/09 04:10:23;;;;;;;39.50;37.30;;;;;;;;;;5040507;28;20120;-62
2023/09/09 04:12:49;;;;;;;42.72;40.47;;;;;;;;;;5037051;28;20318;-62
2023/09/09 04:15:14;;;;;;;48.22;45.72;;;;;;;;;;5036316;28;20029;-62
2023/09/09 04:17:40;;;;;;;46.78;44.33;;;;;;;;;;5036735;28;20037;-62
2023/09/09 04:20:08;;;;;;;50.67;47.92;;;;;;;;;;5037250;28;20355;-64
2023/09/09 04:22:34;;;;;;;48.72;45.97;;;;;;;;;;5039389;28;20506;-62
2023/09/09 04:24:59;;;;;;;52.70;49.70;;;;;;;;;;5036265;28;20456;-62
2023/09/09 04:27:26;;;;;;;49.78;47.20;;;;;;;;;;5040293;28;20041;-62
2023/09/09 04:29:51;;;;;;;46.65;44.22;;;;;;;;;;5034616;28;20025;-62
2023/09/09 04:32:16;;;;;;;47.30;44.85;;;;;;;;;;5039146;28;20025;-62
2023/09/09 04:34:42;;;;;;;56.50;53.63;;;;;;;;;;5040316;28;20099;-62
2023/09/09 04:37:08;;;;;;;55.72;52.83;;;;;;;;;;5037169;28;20470;-62
2023/09/09 04:39:33;;;;;;;61.53;58.33;;;;;;;;;;5034873;28;20033;-62
2023/09/09 04:41:58;;;;;;;60.53;57.28;;;;;;;;;;5037183;28;20452;-62
2023/09/09 04:44:24;;;;;;;68.60;65.15;;;;;;;;;;5033935;28;20037;-63
2023/09/09 04:46:49;;;;;;;74.35;70.60;;;;;;;;;;5053561;28;20160;-62
2023/09/09 04:49:18;;;;;;;89.97;85.35;;;;;;;;;;5038528;28;20029;-63
2023/09/09 04:51:43;;;;;;;101.70;96.63;;;;;;;;;;5041256;28;20063;-62
2023/09/09 04:54:09;;;;;;;118.60;112.70;;;;;;;;;;5041515;28;20041;-61
2023/09/09 04:56:35;;;;;;;123.60;117.40;;;;;;;;;;5026204;28;20044;-61
2023/09/09 04:59:00;;;;;;;124.63;118.32;;;;;;;;;;5040343;28;20569;-62
2023/09/09 05:01:26;;;;;;;136.38;129.52;;;;;;;;;;5037547;28;20624;-61
2023/09/09 05:03:51;;;;;;;135.25;128.48;;;;;;;;;;5023769;28;20036;-62
2023/09/09 05:06:17;;;;;;;143.18;135.73;;;;;;;;;;5038963;28;20037;-62
2023/09/09 05:08:43;;;;;;;142.10;135.00;;;;;;;;;;5043261;28;20103;-61
2023/09/09 05:11:10;;;;;;;159.48;151.52;;;;;;;;;;5036769;28;20041;-62
2023/09/09 05:13:35;;;;;;;159.05;151.15;;;;;;;;;;5037503;28;20415;-66
2023/09/09 05:16:00;;;;;;;160.30;151.82;;;;;;;;;;5034966;28;20037;-65
2023/09/09 05:18:26;;;;;;;180.23;171.25;;;;;;;;;;5037813;28;20102;-65
2023/09/09 05:20:51;;;;;;;170.88;162.38;;;;;;;;;;5040096;28;20029;-61
2023/09/09 05:23:16;;;;;;;169.27;160.68;;;;;;;;;;5036419;28;20606;-65
2023/09/09 05:25:42;;;;;;;171.10;162.40;;;;;;;;;;5041810;28;20033;-66
2023/09/09 05:28:07;;;;;;;176.88;168.10;;;;;;;;;;5038517;28;20045;-64
2023/09/09 05:30:33;;;;;;;182.13;173.13;;;;;;;;;;5040009;28;20041;-61
2023/09/09 05:32:58;;;;;;;187.23;177.98;;;;;;;;;;5039337;28;20072;-62
2023/09/09 05:35:24;;;;;;;206.43;196.13;;;;;;;;;;5039522;28;20033;-65
2023/09/09 05:37:49;;;;;;;210.82;200.43;;;;;;;;;;5040786;28;20490;-66
2023/09/09 05:40:14;;;;;;;212.25;201.73;;;;;;;;;;5041921;28;20518;-66
2023/09/09 05:42:40;;;;;;;192.05;182.43;;;;;;;;;;5042637;28;20447;-61
2023/09/09 05:45:08;;;;;;;185.75;176.50;;;;;;;;;;5023899;28;20075;-61
2023/09/09 05:47:35;;;;;;;197.32;187.50;;;;;;;;;;5039437;28;20043;-66
2023/09/09 05:50:00;;;;;;;209.73;199.40;;;;;;;;;;5039953;28;20043;-61
2023/09/09 05:52:26;;;;;;;199.27;189.45;;;;;;;;;;5039735;28;20033;-61
2023/09/09 05:54:51;;;;;;;199.18;189.30;;;;;;;;;;5039973;28;20062;-61
2023/09/09 05:57:16;;;;;;;224.43;213.32;;;;;;;;;;5039139;28;20033;-61
2023/09/09 05:59:42;;;;;;;213.55;203.02;;;;;;;;;;5038103;28;20127;-61
2023/09/09 06:02:07;;;;;;;213.73;203.13;;;;;;;;;;5041691;28;20360;-61
2023/09/09 06:04:33;;;;;;;208.32;198.02;;;;;;;;;;5037921;28;20111;-62
2023/09/09 06:06:58;;;;;;;219.07;208.23;;;;;;;;;;5036295;28;20041;-62
2023/09/09 06:09:24;;;;;;;203.35;193.32;;;;;;;;;;5038133;28;20021;-64
2023/09/09 06:11:50;;;;;;;212.50;202.02;;;;;;;;;;5040348;28;20040;-62
2023/09/09 06:14:15;;;;;;;214.23;203.70;;;;;;;;;;5039850;28;20065;-66
2023/09/09 06:16:41;;;;;;;212.50;202.02;;;;;;;;;;5038628;28;20033;-66
2023/09/09 06:19:06;;;;;;;230.48;219.15;;;;;;;;;;5040182;28;20037;-66
2023/09/09 06:21:32;;;;;;;235.10;223.45;;;;;;;;;;5041639;28;20045;-61
2023/09/09 06:23:57;;;;;;;210.15;199.82;;;;;;;;;;5040338;28;20037;-62
2023/09/09 06:26:22;;;;;;;216.35;205.73;;;;;;;;;;5037195;28;20551;-62
2023/09/09 06:28:48;;;;;;;197.60;187.70;;;;;;;;;;5039773;28;20048;-62
2023/09/09 06:31:13;;;;;;;189.65;180.20;;;;;;;;;;5036363;28;20060;-63
2023/09/09 06:33:38;;;;;;;182.00;173.10;;;;;;;;;;5051228;28;20122;-62
2023/09/09 06:36:04;;;;;;;161.50;153.48;;;;;;;;;;5036947;28;20069;-62
2023/09/09 06:38:29;;;;;;;167.10;158.77;;;;;;;;;;5037033;28;20060;-63
2023/09/09 06:40:55;;;;;;;155.48;147.75;;;;;;;;;;5022115;28;20046;-66
2023/09/09 06:43:20;;;;;;;150.18;142.77;;;;;;;;;;5041929;28;20035;-68
2023/09/09 06:45:46;;;;;;;102.75;97.63;;;;;;;;;;5037793;28;20045;-68
2023/09/09 06:48:17;;;;;;;99.50;94.55;;;;;;;;;;5035041;28;20044;-64
2023/09/09 06:50:49;;;;;;;55.20;52.35;;;;;;;;;;5037834;28;20535;-66
2023/09/09 06:53:15;;;;;;;57.53;54.50;;;;;;;;;;5037631;28;20040;-66
2023/09/09 06:55:43;;;;;;;47.53;45.08;;;;;;;;;;5039747;28;20119;-64
2023/09/09 06:58:08;;;;;;;46.65;44.15;;;;;;;;;;5037613;28;20120;-67
2023/09/09 07:00:34;;;;;;;48.22;45.70;;;;;;;;;;5038187;28;20116;-68
2023/09/09 07:02:59;;;;;;;31.77;30.08;;;;;;;;;;5023422;28;20156;-68
2023/09/09 07:05:25;;;;;;;31.27;29.65;;;;;;;;;;5022579;28;20033;-67
2023/09/09 07:07:50;;;;;;;39.88;37.83;;;;;;;;;;5038477;28;20087;-68
2023/09/09 07:10:16;;;;;;;33.03;31.25;;;;;;;;;;5021744;28;20419;-68
2023/09/09 07:12:42;;;;;;;37.97;35.95;;;;;;;;;;5039466;28;20037;-64
2023/09/09 07:15:08;;;;;;;38.83;36.78;;;;;;;;;;5037547;28;20033;-63
2023/09/09 07:17:34;;;;;;;41.25;39.10;;;;;;;;;;5040551;28;20029;-63
2023/09/09 07:19:59;;;;;;;35.42;33.47;;;;;;;;;;5037989;28;20468;-68
2023/09/09 07:22:25;;;;;;;35.88;33.92;;;;;;;;;;5038093;28;20041;-67
2023/09/09 07:24:51;;;;;;;36.15;34.15;;;;;;;;;;5036784;28;20107;-67
2023/09/09 07:27:16;;;;;;;22.02;20.83;;;;;;;;;;5035894;28;20120;-62
2023/09/09 07:29:41;;;;;;;22.40;21.10;;;;;;;;;;5022721;28;20148;-67
2023/09/09 07:32:07;;;;;;;31.15;29.48;;;;;;;;;;5033822;28;20041;-67
2023/09/09 07:34:34;;;;;;;28.00;26.55;;;;;;;;;;5022649;28;20025;-66
2023/09/09 07:37:00;;;;;;;24.02;22.58;;;;;;;;;;5038457;28;20060;-66
2023/09/09 07:39:27;;;;;;;25.83;24.40;;;;;;;;;;5024227;28;20486;-66
2023/09/09 07:41:52;;;;;;;23.38;22.08;;;;;;;;;;5034331;28;20102;-62
2023/09/09 07:44:18;;;;;;;24.88;23.48;;;;;;;;;;5035732;28;20049;-61
2023/09/09 07:46:43;;;;;;;26.15;24.77;;;;;;;;;;5037540;28;20028;-66
2023/09/09 07:49:08;;;;;;;36.22;34.33;;;;;;;;;;5033572;28;21355;-66
2023/09/09 07:51:35;;;;;;;43.95;41.70;;;;;;;;;;5034936;28;20487;-65
2023/09/09 07:54:00;;;;;;;41.17;38.88;;;;;;;;;;5053470;28;20029;-62
2023/09/09 07:56:25;;;;;;;64.97;61.67;;;;;;;;;;5037199;28;20031;-62
2023/09/09 07:58:51;;;;;;;54.67;51.80;;;;;;;;;;5035753;28;20037;-62
2023/09/09 08:01:16;;;;;;;55.50;52.55;;;;;;;;;;5036416;28;20120;-61
2023/09/09 08:03:42;;;;;;;74.97;71.13;;;;;;;;;;5036775;28;20029;-62
2023/09/09 08:06:07;;;;;;;63.53;60.22;;;;;;;;;;5037077;28;20629;-61
2023/09/09 08:08:35;;;;;;;84.38;80.10;;;;;;;;;;5036273;28;20024;-66
2023/09/09 08:11:01;;;;;;;82.95;78.63;;;;;;;;;;5038232;28;20341;-66
2023/09/09 08:13:27;;;;;;;72.32;68.60;;;;;;;;;;5023289;28;20108;-67
2023/09/09 08:15:52;;;;;;;83.97;79.78;;;;;;;;;;5036070;28;20128;-67
2023/09/09 08:18:18;;;;;;;83.55;79.25;;;;;;;;;;5037681;28;20048;-67
2023/09/09 08:20:44;;;;;;;63.47;59.78;;;;;;;;;;5032314;28;20041;-62
2023/09/09 08:23:10;;;;;;;66.50;63.00;;;;;;;;;;5035171;28;20040;-67
2023/09/09 08:25:35;;;;;;;100.97;96.03;;;;;;;;;;5019604;28;20029;-65
2023/09/09 08:28:03;;;;;;;91.40;86.80;;;;;;;;;;5023200;28;20111;-65
2023/09/09 08:30:30;;;;;;;128.18;121.85;;;;;;;;;;5038327;28;20116;-66
2023/09/09 08:32:55;;;;;;;109.20;103.68;;;;;;;;;;5037348;28;20094;-61
2023/09/09 08:35:22;;;;;;;143.45;136.25;;;;;;;;;;5038307;28;20145;-67
2023/09/09 08:37:47;;;;;;;137.93;131.10;;;;;;;;;;5038219;28;20684;-67
2023/09/09 08:40:13;;;;;;;139.55;132.52;;;;;;;;;;5039937;28;20128;-67
2023/09/09 08:42:56;;;;;;;121.32;115.25;;;;;;;;;;5040728;28;20411;-67
2023/09/09 08:45:37;;;;;;;173.32;164.85;;;;;;;;;;5038779;28;20130;-63
2023/09/09 08:48:07;;;;;;;174.27;165.73;;;;;;;;;;5038957;28;20032;-68
2023/09/09 08:50:38;;;;;;;203.32;193.48;;;;;;;;;;5028152;28;20124;-63
2023/09/09 08:53:05;;;;;;;211.43;201.25;;;;;;;;;;5040046;28;20051;-62
2023/09/09 08:55:31;;;;;;;232.70;221.27;;;;;;;;;;5056488;28;20040;-66
2023/09/09 08:57:57;;;;;;;240.40;228.60;;;;;;;;;;5040469;28;20124;-67
2023/09/09 09:00:33;;;;;;;206.35;196.32;;;;;;;;;;5038584;28;20120;-67
2023/09/09 09:03:00;;;;;;;243.85;231.98;;;;;;;;;;5041045;28;20037;-62
2023/09/09 09:05:26;;;;;;;215.15;204.73;;;;;;;;;;5038481;28;20407;-67
2023/09/09 09:07:52;;;;;;;152.95;145.35;;;;;;;;;;5041677;28;20096;-69
2023/09/09 09:10:18;;;;;;;195.23;185.73;;;;;;;;;;5039891;28;20033;-62
2023/09/09 09:12:44;;;;;;;202.98;193.10;;;;;;;;;;5040133;28;20534;-62
2023/09/09 09:15:10;;;;;;;150.88;143.40;;;;;;;;;;5041568;28;20033;-62
2023/09/09 09:17:40;;;;;;;243.20;231.40;;;;;;;;;;5011104;28;20033;-62
2023/09/09 09:20:10;;;;;;;158.05;150.25;;;;;;;;;;5019623;28;20033;-63
2023/09/09 09:22:38;;;;;;;186.82;177.70;;;;;;;;;;5023155;28;20072;-62
2023/09/09 09:25:04;;;;;;;150.90;143.35;;;;;;;;;;5040668;28;20025;-63
2023/09/09 09:27:31;;;;;;;114.07;108.35;;;;;;;;;;5041965;28;20104;-62
2023/09/09 09:29:57;;;;;;;140.80;133.80;;;;;;;;;;5037786;28;20037;-68
2023/09/09 09:32:22;;;;;;;146.30;139.05;;;;;;;;;;5052387;28;20327;-64
2023/09/09 09:34:50;;;;;;;82.85;78.68;;;;;;;;;;5038081;28;20033;-69
2023/09/09 09:37:15;;;;;;;149.80;142.35;;;;;;;;;;5037945;28;20047;-68
2023/09/09 09:39:43;;;;;;;147.43;140.07;;;;;;;;;;5041896;28;20029;-63
2023/09/09 09:42:11;;;;;;;113.43;107.72;;;;;;;;;;5042079;28;20554;-63
2023/09/09 09:44:36;;;;;;;122.05;116.00;;;;;;;;;;5039002;28;20040;-68
2023/09/09 09:47:04;;;;;;;65.95;62.58;;;;;;;;;;5023116;28;20037;-69
2023/09/09 09:49:34;;;;;;;59.25;56.25;;;;;;;;;;5039174;28;20064;-63
2023/09/09 09:52:00;;;;;;;61.40;58.30;;;;;;;;;;5037537;28;20095;-63
2023/09/09 09:54:25;;;;;;;72.57;68.82;;;;;;;;;;5039447;28;20037;-62
2023/09/09 09:56:52;;;;;;;92.30;87.68;;;;;;;;;;5039838;28;20045;-68
2023/09/09 09:59:20;;;;;;;146.35;138.98;;;;;;;;;;5037507;28;20467;-63
2023/09/09 10:01:47;;;;;;;164.90;156.82;;;;;;;;;;5040646;28;20029;-63
2023/09/09 10:04:17;;;;;;;174.73;166.13;;;;;;;;;;5024610;28;20050;-63
2023/09/09 10:06:45;;;;;;;262.73;249.77;;;;;;;;;;5039247;28;20118;-63
2023/09/09 10:09:19;;;;;;;355.58;337.40;;;;;;;;;;5036802;28;20363;-68
2023/09/09 10:11:59;;;;;;;402.98;382.20;;;;;;;;;;5036780;28;20099;-69
2023/09/09 10:14:26;;;;;;;409.63;388.42;;;;;;;;;;5039716;28;20412;-69
2023/09/09 10:16:53;;;;;;;435.02;412.02;;;;;;;;;;5040113;28;20029;-69
2023/09/09 10:19:19;;;;;;;471.20;445.88;;;;;;;;;;5038798;28;20037;-69
2023/09/09 10:21:47;;;;;;;434.90;411.95;;;;;;;;;;5038107;28;20191;-68
2023/09/09 10:24:14;;;;;;;445.55;421.92;;;;;;;;;;5042557;28;20106;-63
2023/09/09 10:26:41;;;;;;;510.30;481.95;;;;;;;;;;5038764;28;20052;-63
2023/09/09 10:29:08;;;;;;;453.25;428.90;;;;;;;;;;5037852;28;20047;-63
2023/09/09 10:31:35;;;;;;;435.25;412.15;;;;;;;;;;5035364;28;20517;-63
2023/09/09 10:34:02;;;;;;;473.02;447.40;;;;;;;;;;5040108;28;20024;-63
2023/09/09 10:36:30;;;;;;;498.45;470.67;;;;;;;;;;5035558;28;20030;-69
2023/09/09 10:38:56;;;;;;;466.02;440.90;;;;;;;;;;5025136;28;20025;-69
2023/09/09 10:41:21;;;;;;;495.52;468.23;;;;;;;;;;5035231;28;20044;-63
2023/09/09 10:43:47;;;;;;;489.35;462.50;;;;;;;;;;5038115;28;20043;-68
2023/09/09 10:46:13;;;;;;;410.83;389.45;;;;;;;;;;5039461;28;20055;-69
2023/09/09 10:48:38;;;;;;;381.45;361.90;;;;;;;;;;5036477;28;21424;-63
2023/09/09 10:51:06;;;;;;;277.65;264.05;;;;;;;;;;5036921;28;20465;-71
2023/09/09 10:53:32;;;;;;;286.73;272.63;;;;;;;;;;5035240;28;20048;-70
2023/09/09 10:56:00;;;;;;;334.52;316.73;;;;;;;;;;5034627;28;20459;-70
2023/09/09 10:58:33;;;;;;;349.25;331.60;;;;;;;;;;5036937;28;20367;-63
2023/09/09 11:01:02;;;;;;;269.80;256.50;;;;;;;;;;5037811;28;20601;-63
2023/09/09 11:03:37;;;;;;;269.35;256.13;;;;;;;;;;5034484;28;20041;-71
2023/09/09 11:06:10;;;;;;;303.05;288.08;;;;;;;;;;5035434;28;20123;-63
2023/09/09 11:08:41;;;;;;;469.05;443.35;;;;;;;;;;5034592;28;20495;-71
2023/09/09 11:11:14;;;;;;;380.40;360.60;;;;;;;;;;5040486;28;20136;-69
2023/09/09 11:13:44;;;;;;;369.25;350.33;;;;;;;;;;5023068;28;20063;-70
2023/09/09 11:16:32;;;;;;;262.95;250.15;;;;;;;;;;5038844;28;20033;-71
2023/09/09 11:19:10;;;;;;;275.85;262.38;;;;;;;;;;5038228;28;20053;-62
2023/09/09 11:21:40;;;;;;;278.38;264.63;;;;;;;;;;5039644;28;20037;-71
2023/09/09 11:24:06;;;;;;;332.48;315.70;;;;;;;;;;5036823;28;20037;-62
2023/09/09 11:26:32;;;;;;;320.67;304.45;;;;;;;;;;5021870;28;20029;-62
2023/09/09 11:28:58;;;;;;;232.48;221.07;;;;;;;;;;5034311;28;20531;-62
2023/09/09 11:31:24;;;;;;;227.38;216.27;;;;;;;;;;5036545;28;20033;-70
2023/09/09 11:34:00;;;;;;;237.43;225.73;;;;;;;;;;5040200;28;20160;-62
2023/09/09 11:36:27;;;;;;;228.43;217.20;;;;;;;;;;5038593;28;20056;-71
2023/09/09 11:38:55;;;;;;;232.70;221.40;;;;;;;;;;5038747;28;20053;-63
2023/09/09 11:41:23;;;;;;;224.80;212.70;;;;;;;;;;5036534;28;20120;-63
2023/09/09 11:44:08;;;;;;;237.55;225.95;;;;;;;;;;5037301;28;20049;-66
2023/09/09 11:46:43;;;;;;;233.38;222.07;;;;;;;;;;5024263;28;20103;-72
2023/09/09 11:49:10;;;;;;;235.45;224.00;;;;;;;;;;5034366;28;20024;-69
2023/09/09 11:51:36;;;;;;;199.57;189.80;;;;;;;;;;5035494;28;20030;-70
2023/09/09 11:54:03;;;;;;;159.93;152.00;;;;;;;;;;5036064;28;20032;-71
2023/09/09 11:56:33;;;;;;;162.23;154.05;;;;;;;;;;5026615;28;20055;-71
2023/09/09 11:59:10;;;;;;;154.38;146.68;;;;;;;;;;5039513;28;20033;-65
2023/09/09 12:01:42;;;;;;;142.02;134.95;;;;;;;;;;5037477;28;20127;-71
2023/09/09 12:04:08;;;;;;;36.70;34.67;;;;;;;;;;5033243;28;20101;-71
2023/09/09 12:06:34;;;;;;;110.53;105.03;;;;;;;;;;5021655;28;20043;-70
2023/09/09 12:09:00;;;;;;;81.28;77.18;;;;;;;;;;5039723;28;20255;-70
2023/09/09 12:11:26;;;;;;;41.88;39.65;;;;;;;;;;5039961;28;20109;-70
2023/09/09 12:13:52;;;;;;;32.03;30.33;;;;;;;;;;5051689;28;20136;-70
2023/09/09 12:16:17;;;;;;;30.45;28.75;;;;;;;;;;5036996;28;20032;-63
2023/09/09 12:18:52;;;;;;;29.52;27.92;;;;;;;;;;5022720;28;20090;-62
2023/09/09 12:21:17;;;;;;;28.55;27.02;;;;;;;;;;5038691;28;20046;-63
2023/09/09 12:23:43;;;;;;;36.85;34.85;;;;;;;;;;5031967;28;20048;-63
2023/09/09 12:26:18;;;;;;;31.50;29.80;;;;;;;;;;5021734;28;20056;-70
2023/09/09 12:29:04;;;;;;;30.77;29.10;;;;;;;;;;5038610;28;20033;-70
2023/09/09 12:31:32;;;;;;;26.40;25.00;;;;;;;;;;5035822;28;20047;-70
2023/09/09 12:33:57;;;;;;;29.38;27.75;;;;;;;;;;5035704;28;20060;-70
2023/09/09 12:36:23;;;;;;;30.33;28.65;;;;;;;;;;5035649;28;20068;-62
2023/09/09 12:38:50;;;;;;;30.63;29.02;;;;;;;;;;5034631;28;20029;-62
2023/09/09 12:41:20;;;;;;;28.23;26.67;;;;;;;;;;5034051;28;20025;-69
2023/09/09 12:43:47;;;;;;;30.77;29.10;;;;;;;;;;5035336;28;20035;-70
2023/09/09 12:46:14;;;;;;;31.20;29.48;;;;;;;;;;5053076;28;20068;-62
2023/09/09 12:48:57;;;;;;;31.60;29.90;;;;;;;;;;5037112;28;20037;-62
2023/09/09 12:51:25;;;;;;;29.10;27.50;;;;;;;;;;5037137;28;20052;-62
2023/09/09 12:53:51;;;;;;;32.55;30.77;;;;;;;;;;5023386;28;20037;-62
2023/09/09 12:56:17;;;;;;;29.73;28.08;;;;;;;;;;5034231;28;20037;-72
2023/09/09 12:58:42;;;;;;;31.58;29.83;;;;;;;;;;5034689;28;20044;-70
2023/09/09 13:01:08;;;;;;;33.53;31.73;;;;;;;;;;5035087;28;20415;-63
2023/09/09 13:03:34;;;;;;;28.02;26.52;;;;;;;;;;5051490;28;20049;-63
2023/09/09 13:05:59;;;;;;;31.77;30.08;;;;;;;;;;5035531;28;20296;-70
2023/09/09 13:08:24;;;;;;;28.80;27.27;;;;;;;;;;5038777;28;20526;-62
2023/09/09 13:10:50;;;;;;;33.30;31.50;;;;;;;;;;5038807;28;20033;-69
2023/09/09 13:13:15;;;;;;;39.00;36.88;;;;;;;;;;5038655;28;20489;-69
2023/09/09 13:15:41;;;;;;;37.58;35.58;;;;;;;;;;5039163;28;20259;-70
2023/09/09 13:18:06;;;;;;;29.45;27.85;;;;;;;;;;5040259;28;20033;-63
2023/09/09 13:20:32;;;;;;;30.35;28.75;;;;;;;;;;5040043;28;20665;-62
2023/09/09 13:22:57;;;;;;;42.05;39.85;;;;;;;;;;5030435;28;20068;-62
2023/09/09 13:25:23;;;;;;;41.05;38.88;;;;;;;;;;5026099;28;20064;-70
2023/09/09 13:27:49;;;;;;;41.95;39.78;;;;;;;;;;5038395;28;20033;-71
2023/09/09 13:30:15;;;;;;;39.13;37.10;;;;;;;;;;5041749;28;20033;-62
2023/09/09 13:32:40;;;;;;;31.60;29.90;;;;;;;;;;5038568;28;20048;-70
2023/09/09 13:35:06;;;;;;;37.67;35.70;;;;;;;;;;5025445;28;20116;-62
2023/09/09 13:37:32;;;;;;;34.92;33.13;;;;;;;;;;5038975;28;20067;-63
2023/09/09 13:39:57;;;;;;;38.80;36.78;;;;;;;;;;5038842;28;20467;-70
2023/09/09 13:42:23;;;;;;;46.55;41.42;;;;;;;;;;5038239;28;20593;-62
2023/09/09 13:44:48;;;;;;;33.40;31.60;;;;;;;;;;5039875;28;20539;-69
2023/09/09 13:47:14;;;;;;;30.40;28.75;;;;;;;;;;5023792;28;20101;-69
2023/09/09 13:49:42;;;;;;;42.65;40.33;;;;;;;;;;5053709;28;20060;-69
2023/09/09 13:52:07;;;;;;;40.20;38.10;;;;;;;;;;5025138;28;20623;-70
2023/09/09 13:54:33;;;;;;;46.50;44.08;;;;;;;;;;5034938;28;20055;-62
2023/09/09 13:56:59;;;;;;;35.92;33.97;;;;;;;;;;5026302;28;20049;-62
2023/09/09 13:59:25;;;;;;;48.25;45.60;;;;;;;;;;5035385;28;20045;-69
2023/09/09 14:01:50;;;;;;;28.38;26.88;;;;;;;;;;5038818;28;20033;-69
2023/09/09 14:04:16;;;;;;;52.15;49.50;;;;;;;;;;5038334;28;20040;-69
2023/09/09 14:06:44;;;;;;;42.38;40.17;;;;;;;;;;5036600;28;20499;-70